Airfield :
LOGIN :

Register | Disclaimer

   EN    FR    IT 

 










Legend :    VFR   Marginal VFR   IFR   Intensive IFR   Very Intensive IFR
Visi :
Ceiling :
>= 8 km
>= 3000ft
5 to 8 km
1000 to 3000 ft
1500m to 5 km
500 to 1000 ft
800 to 1500m
200 to 500 ft
< 800m
< 200 ft
Symbols :   Thunderstorms  Fog  Heavy snow  Heavy precipitations  Wind > 20 kt
SIGMETs :     Misc.  Thunderstorms  Icing  Turbulence  Mountain Waves  Volcanic Ashes






- Airport Elevation : 220 ft
- IATA code : CWL


EGFF - Cardiff Rhoose

CURRENT METAR :
  • 301350Z AUTO 07007KT 6000 OVC004 07/06 Q1025

EXPIRED METARs :
  • 301320Z AUTO 07008KT 7000 OVC004 06/06 Q1025
  • 301250Z AUTO 07008KT 7000 OVC004 06/05 Q1025
  • 301220Z AUTO 07010KT 9000 BKN004 OVC007 06/06 Q1025
  • 301150Z AUTO 07008KT 8000 OVC004 06/05 Q1025
  • 301120Z AUTO 07009KT 6000 OVC003 06/05 Q1025

TAF TAF EGFF
Valid from the 30 at 12:00 until the 01 at 12:00 UTC


301059Z 3012/0112 08007KT 6000 OVC004
BECMG 3012/3015 9999 SCT008
PROB30
TEMPO 3015/3018 8000 BKN006
BECMG 3018/3021 6000
BECMG 3021/3024 3000 BR
PROB40 0100/0112 0300 FG VV///
ATIS : +44 1446 729 319



MET'MAP, your aeronautical weather chart ! - Copyright ORBIFLY December 2007 - Disclaimer

ORBIFLY MET'MAP TEAM :

Programming & Development : Alexandra Zaïnal
Original concept : Baudouin d'Aumeries
Technical & hardware support : Manuel Goepfert
Assistance : Marc-Olivier Méhu




SOURCES & CREDITS :

   NOAA